Etusivu
METAR-TAF:

METAR-TAF

Lentoasemat :

Linköping, Ruotsi

Linköpingin lentoasema

Leveyspiiri: 58-24N, Pituuspiiri: 015-41E, korkeus merenpinnasta: 52 m

Tämänhetkinen sää

Tämä raportti tehtiin 22 minuuttia sitten, kello 12.20 UTC
Tuuli 2 kn eri suunnista
Lämpötila 9°C
Kosteus 71%
Ilmanpaine 1021 hPa
Näkyvyys 10 km tai enemmän
ei pilviä alle 1500 m:ssä eikä cumulonimbus-pilviä

METAR: ESSL 191220Z VRB02KT CAVOK 09/04 Q1021

Aika: 14:42 (12:42 UTC)

Sääennuste

Tämä raportti tehtiin 1 tunti ja 12 minuuttia sitten, kello 11.30 UTC
Ennuste voimassa 19. päivästä klo 12 UTC - 19. päivään klo 21 UTC
Tuuli 3 kn eri suunnista
Näkyvyys 10 km tai enemmän
ei pilviä alle 1500 m:ssä eikä cumulonimbus-pilviä

TAF: ESSL 191130Z 1912/1921 VRB03KT CAVOK RMK MIL

Säähavainnot ja -ennusteet yli 4000 lentoasemalta (METAR- ja TAF-raportit).

Käytössä olevat sääasemat on merkitty karttaan keltaisilla ja punaisilla pisteillä.

Aseta hiiri pisteen päälle nähdäksesi sääaseman nimen.

Klikkaa sitten nähdäksesi säähavainnot ja -ennusteet.

Kartan vaihtaminen: klikkaa mustalla rastilla varustettuja vihreitä pisteitä, niin voit zoomata sisään; viivalla varustettua vihreää pistettä, niin voit zoomata ulos tai vihreitä nuolia, niin pääset viereisille kartoille.


METAR-TAF: